Tiempo atmosférico en la estación meteorológica de Bardenas Reales, Base Aérea, Navarra (295 m.)



Fecha
DESCASC
Temp. máxima en grados centígrados (hora)
DESCASC
Temp. mínima en grados centígrados (hora)
DESCASC
Temp. media en grados centígrados
DESCASC
Racha de viento máxima en m/sg (hora)
DESCASC
Velocidad máxima media en intervalos de 10 minutos(hora)
DESCASC
Precipitaciones diarias en mm
DESCASC
Precipitaciones de 00:00 a 06:00 en mm
DESCASC
Precipitaciones de 06:00 a 12:00 en mm
DESCASC
Precipitaciones de 12:00 a 18:00 en mm
DESCASC
Precipitaciones de 18:00 a 24:00 en mm
DESCASC
18-01-2018 12.3 (15:50) -0.9 (08:40) 5.7 5 (14:40) 3.33 (00:10) 0 0 0 0 0
17-01-2018 11.6 (04:10) 4.5 (23:59) 8.1 17.78 (13:10) 13.06 (13:10) 0 0 0 0 0
16-01-2018 14.9 (15:10) 1.2 (08:20) 8 10.83 (16:40) 7.78 (16:50) 0 0 0 0 0
15-01-2018 10.6 (15:00) 2.9 (08:30) 6.8 7.78 (04:40) 5.83 (03:20) 0 0 0 0 0
14-01-2018 8.3 (15:50) 3.7 (00:00) 6 8.33 (17:10) 5.83 (16:20) 2.2 1.8 0.2 0.2 0
13-01-2018 8.1 (16:40) 1.7 (00:00) 4.9 10 (07:00) 7.22 (14:20) 6.6 0 0 0 6.6
12-01-2018 11.3 (15:40) 1.5 (00:00) 6.4 10.28 (13:00) 8.33 (11:50) 0 0 0 0 0
11-01-2018 9.1 (13:10) 0 (00:00) 4.6 14.17 (17:10) 10.56 (13:20) 5.4 0 0 0.2 5.2
10-01-2018 11.4 (14:40) -0.2 (00:00) 5.6 12.78 (18:10) 8.33 (18:00) 0 0 0 0 0
09-01-2018 6.4 (15:20) -2.8 (-00:0) 1.8 9.72 (22:00) 6.94 (14:40) 1.2 0 0 0.4 0.8
08-01-2018 7.6 (16:40) -0.8 (-00:0) 3.4 5 (15:50) 4.17 (11:40) 0 0 0 0 0
07-01-2018 7.6 (16:30) 1.4 (00:00) 4.5 10.28 (00:10) 6.94 (00:10) 5 2.2 2.8 0 0
06-01-2018 9.2 (00:00) 1.5 (00:00) 5.3 12.78 (20:00) 9.44 (20:00) 41.4 9 1.4 9.8 21.2
05-01-2018 16.3 (13:00) 5.5 (00:00) 10.9 12.5 (11:40) 9.17 (11:40) 0.2 0 0 0 0.2
04-01-2018 18.7 (15:40) 7 (08:30) 12.9 11.39 (02:00) 7.78 (01:50) 0 0 0 0 0
03-01-2018 18.9 (15:20) 5.1 (00:00) 12 15.28 (16:20) 11.11 (16:20) 0 0 0 0 0
02-01-2018 14.7 (17:00) 6.4 (00:00) 10.5 10.56 (19:10) 7.5 (19:10) 3.6 2.8 0.2 0.6 0
01-01-2018 14 (15:10) -0.1 (00:00) 6.9 10.56 (18:20) 7.22 (18:30) 1.6 0 0 0 1.6
31-12-2017 16.2 (15:30) 2.3 (00:00) 9.3 21.11 (19:20) 15.83 (19:20) 1.4 0 0 0 1.4
30-12-2017 17.6 (15:50) 1.5 (00:00) 9.6 7.22 (14:50) 5.28 (15:40) 0.2 0 0.2 0 0
29-12-2017 13.8 (15:50) 4.4 (00:00) 9.1 6.11 (00:30) 4.17 (00:30) 1.6 0 1.6 0 0
28-12-2017 10.9 (16:00) 4.5 (00:00) 7.7 13.89 (20:20) 9.72 (20:20) 0.6 0.4 0.2 0 0
27-12-2017 10.1 (00:40) 1.4 (00:00) 5.8 21.11 (12:40) 14.17 (11:50) 3 2.2 0.2 0.6 0
26-12-2017 9.9 (23:00) 2 (00:00) 5.9 13.06 (22:50) 9.72 (22:50) 1.6 1.6 0 0 0
25-12-2017 4.2 (19:40) 0.9 (00:00) 2.5 11.11 (22:40) 7.78 (22:50) 0 0 0 0 0
24-12-2017 5.4 (15:40) -2.5 (-00:0) 1.5 3.89 (15:40) 2.22 (15:00) 0 0 0 0 0

Gráficas

Temp. máximas Temp. mínimas Temp. medias Precipitaciones Rachas de viento máximas Velocidades máximas media en intervalos de 10 minutos

Datos horarios

Fecha y hora oficial Temperatura (ºC) Velocidad del viento (km/h) Dirección del viento Racha (km/h) Dirección de racha Precipitación (mm) Presión (hPa) Tendencia (hPa) Humedad (%)
2018-01-22 23:00:00 11.7 14 Oeste 23 Noroeste 0 992.8 0.5 78
2018-01-22 22:00:00 11.7 17 Noroeste 26 Noroeste 0 992.6 0.6 75
2018-01-22 21:00:00 11.4 18 Noroeste 23 Noroeste 0 992.5 1 75
2018-01-22 20:00:00 12.2 18 Noroeste 26 Noroeste 0 992.3 1.1 72
2018-01-22 19:00:00 12.9 19 Noroeste 29 Noroeste 0 992 1 69
2018-01-22 18:00:00 14.6 22 Noroeste 36 Noroeste 0 991.5 0.4 62
2018-01-22 17:00:00 15.2 24 Noroeste 40 Noroeste 0 991.2 -0.3 61
2018-01-22 16:00:00 15.8 28 Noroeste 44 Noroeste 0 991 -1.1 57
2018-01-22 15:00:00 15.7 30 Oeste 47 Noroeste 0 991.1 -1.6 56
2018-01-22 14:00:00 15 27 Oeste 39 Noroeste 0 991.5 -1.2 59
2018-01-22 13:00:00 14.8 24 Oeste 38 Oeste 0 992.1 -0.1 64
2018-01-22 12:00:00 14.1 24 Noroeste 35 Oeste 0 992.7 0.9 66
2018-01-22 11:00:00 12.1 18 Oeste 28 Noroeste 0 992.7 1 74
2018-01-22 10:00:00 10.1 20 Oeste 28 Noroeste 0 992.2 0.6 81
2018-01-22 09:00:00 8.7 22 Noroeste 27 Noroeste 0 991.8 0.4 86
2018-01-22 08:00:00 7.8 15 Oeste 22 Oeste 0 991.7 0.1 90
2018-01-22 07:00:00 7.5 13 Oeste 19 Oeste 0 991.6 -0.1 88
2018-01-22 06:00:00 8.9 17 Oeste 21 Oeste 0 991.4 -0.6 87
2018-01-22 05:00:00 9.4 18 Noroeste 27 Noroeste 0 991.6 -0.8 86
2018-01-22 04:00:00 11.1 24 Noroeste 42 Noroeste 0 991.7 -1.1 77
2018-01-22 03:00:00 11.4 18 Noroeste 31 Oeste 0 992 -0.8 77
2018-01-22 02:00:00 11.4 21 Noroeste 30 Oeste 0 992.4 -0.2 77
2018-01-22 01:00:00 10.7 23 Oeste -- -- 0 992.8 0.3 80
2018-01-22 00:00:00 11.2 -- -- -- -- 0 992.8 0.4 78
2018-01-21 23:00:00 11.3 23 Oeste 34 Oeste 0 992.6 0.3 78
2018-01-21 22:00:00 12 21 Oeste 31 Noroeste 0 992.5 0.6 76
2018-01-21 21:00:00 12.2 22 Oeste 27 Oeste 0 992.4 0.9 80
2018-01-21 20:00:00 12 15 Noroeste 25 Noroeste 0 992.3 0.9 82
2018-01-21 19:00:00 13.1 18 Noroeste 36 Noroeste 0 991.9 0.4 78
2018-01-21 18:00:00 14.2 24 Noroeste 32 Noroeste 0 991.5 0.4 73
2018-01-21 17:00:00 14.7 17 Noroeste 29 Noroeste 0 991.4 0.3 72
2018-01-21 16:00:00 15.1 18 Noroeste 31 Noroeste 0 991.5 -0.1 71
2018-01-21 15:00:00 15.7 30 Noroeste 45 Noroeste 0 991.1 -0.9 68
2018-01-21 14:00:00 16.9 33 Noroeste 46 Oeste 0 991.1 -0.3 65
2018-01-21 13:00:00 15.8 24 Noroeste 33 Noroeste 0 991.6 0.9 67
2018-01-21 12:00:00 15.4 24 Noroeste 41 Noroeste 0 992 1.6 68
2018-01-21 11:00:00 14.6 12 Oeste 44 Oeste 0 991.4 1.4 69
2018-01-21 10:00:00 13 23 Oeste 35 Noroeste 0 990.7 0.9 73
2018-01-21 09:00:00 11.2 18 Noroeste 39 Oeste 0 990.4 0.9 79
2018-01-21 08:00:00 11.8 27 Oeste 36 Noroeste 0 990 0.9 76
2018-01-21 07:00:00 12 24 Noroeste 38 Oeste 0 989.8 0.9 75
2018-01-21 06:00:00 12.5 23 Noroeste 41 Oeste 0 989.5 0.9 72
2018-01-21 05:00:00 12.7 30 Oeste 53 Oeste 0 989.1 0.7 72
2018-01-21 04:00:00 13.3 35 Noroeste 52 Noroeste 0 988.9 0.5 69
2018-01-21 03:00:00 13.1 27 Oeste 42 Oeste 0 988.6 0.7 69
2018-01-21 02:00:00 12.9 27 Oeste 46 Oeste 0 988.4 0.5 68
2018-01-21 01:00:00 13.5 26 Oeste 42 Oeste 0 988.4 0.6 66
2018-01-21 00:00:00 13.8 29 Oeste 46 Oeste 0 987.9 0.4 65
2018-01-20 23:00:00 13.8 25 Oeste 40 Oeste 0 987.9 0.8 64
2018-01-20 22:00:00 13.4 19 Noroeste 38 Noroeste 0 987.8 1 64
2018-01-20 21:00:00 13.5 24 Oeste 37 Oeste 0 987.5 1.3 61
2018-01-20 20:00:00 12.9 25 Oeste 44 Oeste 0 987.1 1 61
2018-01-20 19:00:00 12.6 32 Oeste 46 Noroeste 0 986.8 1 58
2018-01-20 18:00:00 12.8 34 Oeste 51 Oeste 0 986.2 0.4 55
2018-01-20 17:00:00 13.6 32 Oeste 51 Oeste 0 986.1 -0.3 51
2018-01-20 16:00:00 14.1 28 Oeste 39 Oeste 0 985.8 -1.5 48
2018-01-20 15:00:00 14.4 26 Oeste 39 Oeste 0 985.8 -2.6 46
2018-01-20 14:00:00 13 31 Noroeste 45 Noroeste 0 986.4 -2.2 49
2018-01-20 13:00:00 11.7 19 Oeste 30 Oeste 0 987.3 -1.1 56
2018-01-20 12:00:00 10.4 19 Oeste 29 Noroeste 0 988.4 -0.1 60
2018-01-20 11:00:00 7.2 7 Noroeste 11 Noroeste 0 988.6 0.2 80
2018-01-20 10:00:00 4.8 0 Calma 4 Noroeste 0 988.4 0.1 91
2018-01-20 09:00:00 3.1 3 Norte 7 Sudoeste 0 988.5 0.3 95
2018-01-20 08:00:00 3 8 Sur 10 Sur 0 988.4 -0.2 94
2018-01-20 07:00:00 3.6 5 Sudeste 8 Sudeste 0 988.3 -0.7 93
2018-01-20 06:00:00 5 5 Sur 8 Sudeste 0 988.2 -1.2 93
2018-01-20 05:00:00 6.5 12 Noroeste 18 Oeste 0 988.6 -0.5 89
2018-01-20 04:00:00 7.5 13 Oeste 19 Oeste 0 989 -0.7 88
2018-01-20 03:00:00 7.5 15 Noroeste 21 Noroeste 0 989.4 -0.3 89
2018-01-20 02:00:00 7.1 13 Oeste 20 Oeste 0 989.1 -0.3 91
2018-01-20 01:00:00 7.1 9 Noroeste 28 Noroeste 0 989.7 0.6 90
2018-01-20 00:00:00 7.8 19 Noroeste 26 Noroeste 0 989.7 0.9 86
2018-01-19 23:00:00 8.5 14 Noroeste 25 Oeste 0 989.4 0.7 76
2018-01-19 22:00:00 8.2 9 Oeste 18 Oeste 0 989.1 1 78
2018-01-19 21:00:00 8.2 15 Noroeste 25 Noroeste 0 988.8 1.6 79
2018-01-19 20:00:00 8 12 Oeste 30 Noroeste 0 988.7 2.7 84
2018-01-19 19:00:00 8.9 15 Noroeste 30 Noroeste 0 988.1 2.4 78
2018-01-19 18:00:00 9.9 18 Noroeste 39 Noroeste 0 987.2 1.8 73
2018-01-19 17:00:00 11.2 28 Noroeste 49 Noroeste 0 986 0.7 67
2018-01-19 16:00:00 11.8 32 Noroeste 45 Noroeste 0 985.7 -0.1 70
2018-01-19 15:00:00 12.2 19 Noroeste 37 Noroeste 0 985.4 -0.7 71
2018-01-19 14:00:00 12.4 24 Noroeste 39 Noroeste 0 985.3 -0.8 72
2018-01-19 13:00:00 13.1 24 Noroeste 37 Noroeste 0 985.8 -0.2 71
2018-01-19 12:00:00 12.4 19 Oeste 27 Oeste 0 986.1 0.3 72
2018-01-19 11:00:00 10.3 17 Oeste 21 Oeste 0 986.1 0.3 79
2018-01-19 10:00:00 6.6 11 Oeste 16 Sudoeste 0 986 0.4 87
2018-01-19 09:00:00 4.5 14 Oeste 20 Oeste 0 985.8 0.3 93
2018-01-19 08:00:00 5.7 18 Oeste 24 Oeste 0 985.8 0.2 90
2018-01-19 07:00:00 5.7 20 Oeste 25 Noroeste 0 985.6 -0.3 92
2018-01-19 06:00:00 4.5 3 Noroeste 20 Oeste 0 985.5 -0.7 93
2018-01-19 05:00:00 5.4 15 Oeste 26 Oeste 0 985.6 -1.1 91
2018-01-19 04:00:00 5.9 21 Oeste 26 Oeste 0 985.9 -1.4 93
2018-01-19 03:00:00 5.1 12 Noroeste 20 Noroeste 0 986.2 -1.1 96
2018-01-19 02:00:00 3.6 15 Noroeste 18 Noroeste 0 986.7 -0.2 98
2018-01-19 01:00:00 3.9 4 Sudoeste 15 Sur 0 987.3 0.9 94
2018-01-19 00:00:00 4.3 6 Oeste 12 Oeste 0 987.3 1.2 93
2018-01-18 23:00:00 4.7 8 Oeste 10 Oeste 0 986.9 1 90
2018-01-18 22:00:00 4.5 6 Noroeste 8 Noroeste 0 986.4 0.4 91
2018-01-18 21:00:00 5.5 9 Noroeste 12 Noroeste 0 986.1 0.2 88
2018-01-18 20:00:00 6.6 2 Nordeste 7 Noroeste 0 985.9 -0.3 83
2018-01-18 19:00:00 8.1 9 Sudoeste 12 Oeste 0 986 -0.4 78
2018-01-18 18:00:00 10.8 8 Sudoeste 11 Oeste 0 985.9 -1.1 68
2018-01-18 17:00:00 12.3 10 Oeste 18 Noroeste 0 986.2 -1.9 57
2018-01-18 16:00:00 12.2 9 Noroeste 17 Noroeste 0 986.4 -2.9 54
2018-01-18 15:00:00 11.6 9 Norte 18 Norte 0 987 -3.3 59
2018-01-18 14:00:00 10.2 7 Norte 13 Noroeste 0 988.1 -2.5 62
2018-01-18 13:00:00 8.7 4 Sudoeste 9 Sudoeste 0 989.3 -1.2 73
2018-01-18 12:00:00 6.6 5 Sudoeste 9 Sur 0 990.3 0.2 84
2018-01-18 11:00:00 4.6 0 Calma 7 Norte 0 990.6 0.6 93
2018-01-18 10:00:00 1.5 4 Norte 7 Norte 0 990.5 0.4 98
2018-01-18 09:00:00 -0.7 3 Noroeste 5 Noroeste 0 990.1 0.2 100
2018-01-18 08:00:00 -0.5 2 Norte 9 Norte 0 990 0 100
2018-01-18 07:00:00 0.1 5 Sur 5 Sur 0 990.1 -0.6 99
2018-01-18 06:00:00 1.1 3 Sudoeste 8 Sur 0 989.9 -1.3 99
2018-01-18 05:00:00 1.4 4 Sudoeste 8 Sur 0 990 -1.7 99
2018-01-18 04:00:00 1.2 4 Este 6 Este 0 990.7 -1.1 99
2018-01-18 03:00:00 2.5 2 Este 6 Norte 0 991.2 -1 98
2018-01-18 02:00:00 3.2 2 Oeste 17 Sudeste 0 991.7 -0.4 97
2018-01-18 01:00:00 3.2 6 Sudoeste 14 Oeste 0 991.8 -0.2 96
2018-01-18 00:00:00 4.5 12 Oeste 20 Noroeste 0 992.2 0.2 94
2018-01-17 23:00:00 5.4 16 Oeste 19 Noroeste 0 992.1 -0.2 93
2018-01-17 22:00:00 5.9 5 Noroeste 27 Noroeste 0 992 0 89
2018-01-17 21:00:00 7.4 24 Noroeste 34 Noroeste 0 992 0.2 85
2018-01-17 20:00:00 6.8 10 Noroeste 19 Noroeste 0 992.3 1.5 89
2018-01-17 19:00:00 7 12 Noroeste 32 Noroeste 0 992 1.3 86
2018-01-17 18:00:00 8.9 24 Noroeste 47 Oeste 0 991.8 1.3 77
2018-01-17 17:00:00 10.9 28 Noroeste 51 Noroeste 0 990.8 0.3 64
2018-01-17 16:00:00 10.5 23 Noroeste 39 Noroeste 0 990.7 0 68
2018-01-17 15:00:00 10.9 32 Noroeste 53 Noroeste 0 990.5 -1 63
2018-01-17 14:00:00 11.1 33 Noroeste 64 Noroeste 0 990.5 -0.5 59
2018-01-17 13:00:00 11 45 Noroeste 64 Noroeste 0 990.7 0.6 58
2018-01-17 12:00:00 10.6 28 Noroeste 51 Oeste 0 991.5 2.5 70
2018-01-17 11:00:00 10.3 22 Noroeste 35 Noroeste 0 991 2.4 68
2018-01-17 10:00:00 10.3 22 Noroeste 37 Noroeste 0 990.1 2 68
2018-01-17 09:00:00 9.6 30 Noroeste 40 Noroeste 0 989 1.5 73
2018-01-17 08:00:00 9.7 16 Noroeste 36 Noroeste 0 988.6 1.4 74
2018-01-17 07:00:00 10.1 18 Noroeste 28 Noroeste 0 988.1 0.9 78
2018-01-17 06:00:00 10.6 18 Noroeste 49 Oeste 0 987.5 1 79
2018-01-17 05:00:00 10.3 16 Noroeste 38 Oeste 0 987.2 0.6 79
2018-01-17 04:00:00 11.5 29 Oeste 48 Noroeste 0 987.2 0.1 75
2018-01-17 03:00:00 11.1 26 Oeste 42 Oeste 0 986.5 -1 78
2018-01-17 02:00:00 5.8 5 Sudeste 9 Sudeste 0 986.6 -0.8 97
2018-01-17 01:00:00 5.8 4 Sudeste 10 Sur 0 987.1 -0.3 96
2018-01-17 00:00:00 6.1 4 Sudoeste 10 Norte 0 987.5 -0.1 95
2018-01-16 23:00:00 6.3 7 Nordeste 10 Norte 0 987.4 0.2 91
2018-01-16 22:00:00 7.9 4 Norte 16 Sudoeste 0 987.4 0.5 88
2018-01-16 21:00:00 8.9 7 Sudoeste 17 Oeste 0 987.6 0.6 86
2018-01-16 20:00:00 10.7 15 Oeste 31 Noroeste 0 987.2 0.1 80
2018-01-16 19:00:00 11.3 23 Oeste 30 Noroeste 0 986.9 -0.6 77
2018-01-16 18:00:00 12.5 17 Noroeste 36 Noroeste 0 987 -0.7 73
2018-01-16 17:00:00 14 26 Noroeste 39 Noroeste 0 987.1 -1.3 67
2018-01-16 16:00:00 14.7 19 Oeste 32 Oeste 0 987.5 -1.8 65
2018-01-16 15:00:00 14.6 25 Oeste 32 Oeste 0 987.7 -2.3 64
2018-01-16 14:00:00 13.9 17 Oeste 31 Oeste 0 988.4 -2 66
2018-01-16 13:00:00 12.4 20 Oeste 28 Oeste 0 989.3 -0.7 69
2018-01-16 12:00:00 10.4 17 Oeste 23 Oeste 0 990 0.6 74
2018-01-16 11:00:00 7.9 8 Sudoeste 12 Sudoeste 0 990.4 1.3 83
2018-01-16 10:00:00 4 3 Nordeste 7 Nordeste 0 990 1.7 99
2018-01-16 09:00:00 1.3 3 Sur 4 Sur 0 989.4 1 100
2018-01-16 08:00:00 1.3 0 Calma 6 Noroeste 0 989.1 0.6 99
2018-01-16 07:00:00 1.7 3 Noroeste 6 Sur 0 988.3 -0.2 98
2018-01-16 06:00:00 2.4 4 Norte 6 Norte 0 988.4 -0.7 98
2018-01-16 05:00:00 3.3 4 Sur 11 Nordeste 0 988.5 -0.4 96
2018-01-16 04:00:00 4.6 7 Sur 9 Sur 0 988.5 -0.7 94
2018-01-16 03:00:00 5.7 4 Sudoeste 8 Norte 0 989.1 -0.7 94
2018-01-16 02:00:00 5.7 4 Noroeste 6 Noroeste 0 988.9 -0.4 93
2018-01-16 01:00:00 6 3 Nordeste 12 Sudeste 0 989.2 -0.3 90
2018-01-16 00:00:00 6.4 4 Este 8 Este 0 989.8 0.4 87
2018-01-15 23:00:00 6.5 4 Sudeste 11 Sudoeste 0 989.3 0.5 87
2018-01-15 22:00:00 6.9 9 Sudoeste 10 Sudoeste 0 989.5 1.1 84
2018-01-15 21:00:00 7 4 Sur 8 Noroeste 0 989.4 1.3 86
2018-01-15 20:00:00 7.1 6 Norte 14 Sudoeste 0 988.8 1 87
2018-01-15 19:00:00 8.1 11 Sudoeste 15 Sudoeste 0 988.4 0.7 74
2018-01-15 18:00:00 8.7 5 Sudeste 12 Sudeste 0 988.1 -0.2 72
2018-01-15 17:00:00 9.9 8 Sudeste 14 Sur 0 987.8 -1.1 66
2018-01-15 16:00:00 10.4 3 Este 9 Sur 0 987.7 -2 57
2018-01-15 15:00:00 10.6 4 Sur 8 Este 0 988.3 -2 58
2018-01-15 14:00:00 10.2 5 Sudeste 9 Sudoeste 0 988.9 -1.7 65
2018-01-15 13:00:00 9.7 5 Sudoeste 14 Sudoeste 0 989.7 -0.2 68
2018-01-15 12:00:00 8.7 9 Oeste 16 Noroeste 0 990.3 1 72
2018-01-15 11:00:00 6.9 9 Noroeste 17 Noroeste 0 990.6 1.8 78
2018-01-15 10:00:00 5.9 8 Oeste 14 Oeste 0 989.9 1.8 82
2018-01-15 09:00:00 3.4 9 Noroeste 12 Nordeste 0 989.3 1.7 92
2018-01-15 08:00:00 3.4 8 Oeste 18 Oeste 0 988.8 1.3 90
2018-01-15 07:00:00 3.9 14 Oeste 24 Noroeste 0 988.1 0.5 89
2018-01-15 06:00:00 3.2 10 Noroeste 20 Noroeste 0 987.6 0.4 91
2018-01-15 05:00:00 4 17 Noroeste 28 Noroeste 0 987.5 0.3 88
2018-01-15 04:00:00 4.3 17 Noroeste 28 Oeste 0 987.6 0.3 88
2018-01-15 03:00:00 4 18 Noroeste 27 Oeste 0 987.2 0.2 89
2018-01-15 02:00:00 3.1 14 Oeste 18 Oeste 0 987.2 0.6 93
2018-01-15 01:00:00 3.5 5 Noroeste 17 Oeste 0 987.3 1.3 89
2018-01-15 00:00:00 4.8 13 Noroeste 21 Noroeste 0 987 1.6 85
2018-01-14 23:00:00 4.9 13 Noroeste 19 Oeste 0 986.6 1.8 85
2018-01-14 22:00:00 5.1 11 Noroeste 20 Noroeste 0 986 2 86
2018-01-14 21:00:00 6.1 14 Noroeste 24 Noroeste 0 985.4 2.3 82
2018-01-14 20:00:00 6.2 13 Noroeste 22 Noroeste 0 984.8 2.4 83
2018-01-14 19:00:00 6.6 11 Noroeste 25 Noroeste 0 984 2 83
2018-01-14 18:00:00 7.6 21 Noroeste 30 Oeste 0 983.1 1.1 75
2018-01-14 17:00:00 8.2 18 Oeste 28 Oeste 0 982.4 0.3 71
2018-01-14 16:00:00 8.3 20 Oeste 28 Oeste 0 982 -0.6 71
2018-01-14 15:00:00 7.8 17 Oeste 28 Noroeste 0.2 982 -0.9 72
2018-01-14 14:00:00 7.5 15 Oeste 23 Oeste 0 982.1 -0.6 76
2018-01-14 13:00:00 6.7 11 Oeste 22 Oeste 0 982.6 0.6 80
2018-01-14 12:00:00 6.3 13 Oeste 22 Oeste 0 982.9 1.4 84
2018-01-14 11:00:00 5.4 12 Oeste 18 Oeste 0 982.7 1.7 89
2018-01-14 10:00:00 4.6 11 Noroeste 23 Oeste 0 982 1.2 92
2018-01-14 09:00:00 3.9 7 Noroeste 12 Oeste 0 981.5 0.8 96
2018-01-14 08:00:00 3.9 8 Oeste 14 Oeste 0 981 0.2 95
2018-01-14 07:00:00 3.8 8 Sudoeste 9 Sudoeste 0.2 980.8 0.1 96
2018-01-14 06:00:00 3.9 5 Sudoeste 7 Sudoeste 0 980.7 0.2 97
2018-01-14 05:00:00 4 6 Oeste 13 Oeste 0.4 980.8 0.3 97
2018-01-14 04:00:00 4 12 Oeste 20 Noroeste 0.4 980.7 -0.1 96
2018-01-14 03:00:00 3.9 12 Oeste 23 Noroeste 0.4 980.5 -0.4 96
2018-01-14 02:00:00 4.4 14 Noroeste 27 Noroeste 0.2 980.5 -0.2 95
2018-01-14 01:00:00 4.7 15 Noroeste 20 Noroeste 0.4 980.8 0.2 96
2018-01-14 00:00:00 4.9 3 Sur 12 Sudeste 1 980.9 0.1 95
2018-01-13 23:00:00 5.1 13 Sudeste 18 Sudeste 1.8 980.7 0.1 94
2018-01-13 22:00:00 5.3 11 Este 21 Este 1.6 980.6 0.3 93
2018-01-13 21:00:00 5.6 7 Este 14 Sudeste 1.6 980.8 1 93
2018-01-13 20:00:00 6 13 Sudeste 24 Sudeste 0.6 980.6 0.7 91
2018-01-13 19:00:00 6.5 12 Este 32 Este 0 980.3 0.2 88
2018-01-13 18:00:00 7.4 23 Este 32 Este 0 979.8 -0.8 79
2018-01-13 17:00:00 7.9 21 Este 32 Este 0 979.9 -1 75
2018-01-13 16:00:00 7.7 18 Este 33 Este 0 980.1 -2 77
2018-01-13 15:00:00 7.5 22 Este 35 Este 0 980.6 -2.4 76
2018-01-13 14:00:00 7.6 23 Este 32 Este 0 980.9 -2.6 76
2018-01-13 13:00:00 6.7 22 Este 35 Este 0 982.1 -1.4 80
2018-01-13 12:00:00 5.7 22 Este 30 Sudeste 0 983 -0.6 85
2018-01-13 11:00:00 4.3 14 Sudeste 23 Este 0 983.5 0.3 91
2018-01-13 10:00:00 2.9 17 Este 24 Este 0 983.5 0.3 95
2018-01-13 09:00:00 2.5 12 Este 27 Este 0 983.6 -0.1 95
2018-01-13 08:00:00 2.6 19 Este 35 Este 0 983.2 -1 94
2018-01-13 07:00:00 3.3 25 Este 36 Este 0 983.2 -1.9 92
2018-01-13 06:00:00 2.7 18 Este 26 Este 0 983.7 -1.4 96
2018-01-13 05:00:00 2.8 20 Este 27 Este 0 984.2 -1.7 96
2018-01-13 04:00:00 2.1 17 Este 30 Este 0 985.1 -1.4 96
2018-01-13 03:00:00 2.4 21 Este 28 Este 0 985.1 -1.6 96
2018-01-13 02:00:00 1.8 5 Nordeste 15 Este 0 985.9 -1 97
2018-01-13 01:00:00 2.5 8 Sur 13 Sur 0 986.5 -0.4 97
2018-01-13 00:00:00 2.8 3 Norte 6 Nordeste 0 986.7 -0.2 95
2018-01-12 23:00:00 3.3 2 Norte 12 Sudeste 0 986.9 -0.2 93
2018-01-12 22:00:00 3.2 3 Sudeste 11 Sudeste 0 986.9 0.1 92
2018-01-12 21:00:00 4.7 5 Sur 11 Sudeste 0 986.9 0.1 87
2018-01-12 20:00:00 5.1 7 Sudeste 14 Noroeste 0 987.1 0.3 89
2018-01-12 19:00:00 6.1 9 Norte 16 Noroeste 0 986.8 -0.1 87
2018-01-12 18:00:00 8.1 14 Oeste 22 Oeste 0 986.8 -0.5 78
2018-01-12 17:00:00 10.1 15 Noroeste 31 Oeste 0 986.8 -1 67
2018-01-12 16:00:00 10.2 17 Noroeste 35 Noroeste 0 986.9 -1.7 68
2018-01-12 15:00:00 11 23 Noroeste 33 Noroeste 0 987.3 -1.6 65
2018-01-12 14:00:00 9.9 22 Noroeste 35 Noroeste 0 987.8 -1.4 74
2018-01-12 13:00:00 9.2 27 Noroeste 37 Noroeste 0 988.6 -0.4 73
2018-01-12 12:00:00 8.6 25 Oeste 37 Noroeste 0 988.9 0.2 78
2018-01-12 11:00:00 7.9 20 Noroeste 29 Noroeste 0 989.2 0.7 84
2018-01-12 10:00:00 6.5 17 Oeste 33 Oeste 0 989 0.5 90
2018-01-12 09:00:00 5.6 20 Oeste 27 Oeste 0 988.7 0.6 89
2018-01-12 08:00:00 5.1 18 Noroeste 22 Noroeste 0 988.5 0.4 92
2018-01-12 07:00:00 4 15 Oeste 24 Oeste 0 988.5 0 94
2018-01-12 06:00:00 3.3 14 Oeste 30 Noroeste 0 988.1 -0.3 93
2018-01-12 05:00:00 3.6 18 Oeste 27 Oeste 0 988.1 0.2 95
2018-01-12 04:00:00 3.5 15 Oeste 26 Oeste 0 988.5 0.4 94
2018-01-12 03:00:00 3.4 11 Oeste 23 Noroeste 0 988.4 0.3 94
2018-01-12 02:00:00 4 18 Noroeste 28 Noroeste 0 987.9 0.2 93
2018-01-12 01:00:00 3.3 21 Noroeste 27 Noroeste 0 988.1 0.2 97
2018-01-12 00:00:00 1.5 7 Noroeste 18 Noroeste 0 988.1 1.2 98
2018-01-11 23:00:00 2.4 16 Oeste 20 Noroeste 0 987.7 0.9 96
2018-01-11 22:00:00 3.2 11 Noroeste 21 Oeste 0 987.9 1.6 98
2018-01-11 21:00:00 3.7 13 Oeste 17 Oeste 0.6 986.9 1.2 96
2018-01-11 20:00:00 3.7 5 Noroeste 20 Oeste 3.2 986.8 2 96
2018-01-11 19:00:00 4.3 21 Noroeste 29 Noroeste 1.4 986.3 2.1 90
2018-01-11 18:00:00 5 23 Noroeste 51 Noroeste 0.2 985.7 1.9 90
2018-01-11 17:00:00 7.3 27 Noroeste 44 Noroeste 0 984.8 1.2 71
2018-01-11 16:00:00 8.2 22 Noroeste 48 Noroeste 0 984.2 0.4 66
2018-01-11 15:00:00 8.1 30 Noroeste 50 Noroeste 0 983.8 -0.3 66
2018-01-11 14:00:00 8.5 33 Noroeste 51 Noroeste 0 983.6 -0.5 61
2018-01-11 13:00:00 9 37 Noroeste 50 Oeste 0 983.8 0.2 62
2018-01-11 12:00:00 7.5 33 Noroeste 48 Noroeste 0 984.1 1.3 66
2018-01-11 11:00:00 7 10 Oeste 27 Noroeste 0 984.1 1.9 71
2018-01-11 10:00:00 5 19 Noroeste 29 Noroeste 0 983.6 2 80
2018-01-11 09:00:00 2.2 7 Sudoeste 13 Sudoeste 0 982.8 1.3 88
2018-01-11 08:00:00 1.2 3 Sudoeste 12 Noroeste 0 982.2 0.7 94
2018-01-11 07:00:00 0 4 Norte 12 Oeste 0 981.6 -0.2 96
2018-01-11 06:00:00 0.7 3 Oeste 8 Sur 0 981.5 -0.8 94
2018-01-11 05:00:00 0.8 5 Norte 8 Norte 0 981.5 -0.5 95
2018-01-11 04:00:00 1.8 6 Sudoeste 7 Sur 0 981.8 0 88
2018-01-11 03:00:00 3.1 5 Sudoeste 24 Noroeste 0 982.3 0.4 82
2018-01-11 02:00:00 3.7 5 Sur 28 Noroeste 0 982 0.7 84
2018-01-11 01:00:00 5.3 21 Noroeste 32 Noroeste 0 981.8 1 76
2018-01-11 00:00:00 5.2 9 Noroeste 27 Noroeste 0 981.9 2.3 85
2018-01-10 23:00:00 6.1 21 Noroeste 39 Noroeste 0 981.3 2.3 81
2018-01-10 22:00:00 6.1 30 Noroeste 43 Noroeste 0 980.8 2.2 84
2018-01-10 21:00:00 5.7 6 Sudeste 12 Oeste 0 979.6 1.4 86
2018-01-10 20:00:00 7.5 12 Sudoeste 24 Sudoeste 0 979 0.4 76
2018-01-10 19:00:00 8.6 22 Sur 46 Sudoeste 0 978.6 0 70
2018-01-10 18:00:00 9.4 30 Sudoeste 45 Sudoeste 0 978.2 -0.6 67
2018-01-10 17:00:00 8.9 17 Sur 25 Sur 0 978.6 -0.6 70
2018-01-10 16:00:00 9.7 11 Sudoeste 31 Sudoeste 0 978.6 -1.5 69
2018-01-10 15:00:00 11 24 Sudoeste 38 Sudoeste 0 978.8 -2.5 60
2018-01-10 14:00:00 10.1 8 Sur 20 Sur 0 979.2 -2.5 69
2018-01-10 13:00:00 7.4 9 Este 13 Este 0 980.1 -1.5 82
2018-01-10 12:00:00 5.5 3 Sudeste 8 Sudeste 0 981.3 -0.4 85
2018-01-10 11:00:00 3 3 Sudoeste 12 Sudoeste 0 981.7 0.2 97
2018-01-10 10:00:00 0.6 0 Calma 7 Norte 0 981.6 0.7 100
2018-01-10 09:00:00 0.1 4 Sudoeste 7 Sudoeste 0 981.7 0.8 100
2018-01-10 08:00:00 0 2 Sudoeste 7 Sudoeste 0 981.5 0.7 99
2018-01-10 07:00:00 0.2 4 Sur 11 Sudeste 0 980.9 -0.2 98
2018-01-10 06:00:00 2 8 Nordeste 12 Este 0 980.9 -0.2 95
2018-01-10 05:00:00 3 10 Este 12 Este 0 980.8 -0.3 94
2018-01-10 04:00:00 3.3 9 Este 17 Este 0 981.1 -0.4 95
2018-01-10 03:00:00 3.6 16 Este 21 Este 0 981.1 -0.6 94
2018-01-10 02:00:00 3.8 12 Este 23 Este 0 981.1 -0.6 94
2018-01-10 01:00:00 4.2 22 Este 28 Este 0 981.5 0.3 93
2018-01-10 00:00:00 4.2 20 Este 27 Este 0 981.7 0.2 92
2018-01-09 23:00:00 4.3 21 Este 32 Este 0 981.7 0.1 91
2018-01-09 22:00:00 4.5 23 Este 35 Este 0 981.2 -0.3 89
2018-01-09 21:00:00 4.2 8 Sudeste 15 Este 0 981.5 0 93
2018-01-09 20:00:00 4.2 9 Nordeste 19 Este 0 981.6 0.6 90
2018-01-09 19:00:00 4.5 12 Este 19 Este 0.8 981.5 1 89
2018-01-09 18:00:00 5.5 7 Este 30 Sudeste 0.4 981.5 0.8 80
2018-01-09 17:00:00 6 15 Este 30 Este 0 981 0.2 80
2018-01-09 16:00:00 6.3 21 Este 34 Este 0 980.5 -0.7 77
2018-01-09 15:00:00 6.2 22 Este 34 Este 0 980.7 -1.2 77
2018-01-09 14:00:00 5 21 Sudeste 32 Este 0 980.8 -0.4 85
2018-01-09 13:00:00 3.4 21 Sudeste 31 Sudeste 0 981.2 0 95
2018-01-09 12:00:00 1.5 20 Sudeste 32 Este 0 981.9 1.2 --
2018-01-09 11:00:00 -0.2 23 Este 35 Este 0 981.2 0.6 --
2018-01-09 10:00:00 -1.5 20 Este 28 Este 0 981.2 1.1 --
2018-01-09 09:00:00 -2.5 15 Este 21 Este 0 980.7 1 --
2018-01-09 08:00:00 -2.4 4 Nordeste 12 Este 0 980.6 1 100
2018-01-09 07:00:00 -2.8 3 Oeste 5 Norte 0 980.1 1 100
2018-01-09 06:00:00 -1.9 4 Noroeste 6 Sudoeste 0 979.7 0.9 100
2018-01-09 05:00:00 -2 4 Sudoeste 11 Sudeste 0 979.6 0.8 100
2018-01-09 04:00:00 -1.5 6 Noroeste 7 Norte 0 979.1 0 100
2018-01-09 03:00:00 -1.4 3 Sudoeste 10 Sudoeste 0 978.8 -0.4 100
2018-01-09 02:00:00 -1 0 Calma 6 Sur 0 978.8 0.2 100
2018-01-09 01:00:00 -0.9 3 Sudoeste 6 Sur 0 979.1 1 100
2018-01-09 00:00:00 -0.8 2 Noroeste 7 Nordeste 0 979.2 1.2 99
2018-01-08 23:00:00 -0.3 3 Sur 7 Sur 0 978.6 1.1 98
2018-01-08 22:00:00 0.6 2 Norte 4 Noroeste 0 978.1 0.8 98
2018-01-08 21:00:00 1.1 0 Calma 5 Sur 0 978 1 95
2018-01-08 20:00:00 2.2 2 Norte 4 Sur 0 977.5 0.7 90
2018-01-08 19:00:00 3.3 2 Noroeste 11 Oeste 0 977.3 0.5 88
2018-01-08 18:00:00 5.1 8 Oeste 14 Oeste 0 977 0.2 82
2018-01-08 17:00:00 7.3 13 Oeste 17 Oeste 0 976.8 0.2 71
2018-01-08 16:00:00 7.1 13 Oeste 18 Oeste 0 976.8 -0.5 80
2018-01-08 15:00:00 6.2 6 Oeste 15 Oeste 0 976.8 -0.8 84
2018-01-08 14:00:00 4.7 8 Oeste 16 Oeste 0 976.6 -1.2 90
2018-01-08 13:00:00 3.8 10 Oeste 16 Noroeste 0 977.3 0.1 94
2018-01-08 12:00:00 3.3 12 Sudoeste 17 Sudoeste 0 977.6 0.7 --
2018-01-08 11:00:00 2.5 7 Sudoeste 11 Sudoeste 0 977.8 1.4 --
2018-01-08 10:00:00 1.9 3 Sur 10 Sudoeste 0 977.2 1 --
2018-01-08 09:00:00 1.4 6 Sudoeste 10 Sudoeste 0 976.9 0.9 --
2018-01-08 08:00:00 1 6 Sudoeste 8 Sudoeste 0 976.4 1.1 --
2018-01-08 07:00:00 0.7 5 Oeste 8 Oeste 0 976.2 1.6 --
2018-01-08 06:00:00 0.5 3 Noroeste 13 Noroeste 0 976 2.2 --
2018-01-08 05:00:00 0.4 3 Sur 15 Sudoeste 0 975.3 2.1 --
2018-01-08 04:00:00 0.3 6 Sur 17 Sur 0 974.6 1.2 --
2018-01-08 03:00:00 0.9 4 Sur 10 Sur 0 973.8 -0.2 --
2018-01-08 02:00:00 1.7 5 Sudoeste 9 Sur 0 973.2 0 100
2018-01-08 01:00:00 2.2 4 Nordeste 6 Nordeste 0 973.4 0.5 100
2018-01-08 00:00:00 2.3 0 Calma 13 Sudoeste 0 974 1.2 99
2018-01-07 23:00:00 3 6 Sudoeste 10 Sudoeste 0 973.2 1.3 98
2018-01-07 22:00:00 3.8 3 Sudoeste 11 Norte 0 972.9 1.5 97
2018-01-07 21:00:00 4.6 11 Norte 14 Norte 0 972.8 2.1 97
2018-01-07 20:00:00 4.4 5 Noroeste 10 Noroeste 0 971.9 2.1 95
2018-01-07 19:00:00 5.3 0 Calma 16 Sudoeste 0 971.4 2.4 92
2018-01-07 18:00:00 6.1 8 Sudoeste 14 Sudoeste 0 970.7 2.1 89
2018-01-07 17:00:00 7.3 10 Sudeste 14 Sur 0 969.8 1.5 86
2018-01-07 16:00:00 6.4 9 Sur 18 Sudeste 0 969 1.4 94
2018-01-07 15:00:00 6.8 13 Este 21 Este 0 968.6 1.4 91
2018-01-07 14:00:00 6.1 15 Este 24 Este 0 968.3 2 92
2018-01-07 13:00:00 4.6 3 Sur 8 Sudeste 0 967.6 2.1 96
2018-01-07 12:00:00 3.8 2 Sudeste 8 Sudoeste 0 967.2 2.4 97
2018-01-07 11:00:00 3.5 8 Oeste 12 Oeste 0 966.3 2.2 98
2018-01-07 10:00:00 3.3 5 Oeste 12 Oeste 0.2 965.5 1.6 99
2018-01-07 09:00:00 3.2 5 Oeste 19 Noroeste 0.4 964.8 1.2 98
2018-01-07 08:00:00 3 17 Oeste 29 Oeste 1 964.1 0.8 98
2018-01-07 07:00:00 2.9 17 Oeste 25 Oeste 1.2 963.9 0.3 97
2018-01-07 06:00:00 2.8 14 Noroeste 31 Oeste 0.2 963.6 -0.1 97
2018-01-07 05:00:00 2.5 14 Noroeste 31 Oeste 0.4 963.3 0 97
2018-01-07 04:00:00 2.3 20 Oeste 32 Oeste 0 963.6 0.1 96
2018-01-07 03:00:00 1.7 18 Oeste 27 Oeste 0 963.7 0.1 98
2018-01-07 02:00:00 1.5 21 Oeste 31 Noroeste 0.4 963.3 -0.4 99
2018-01-07 01:00:00 1.7 22 Noroeste 37 Oeste 1.2 963.5 -0.3 99
2018-01-07 00:00:00 1.5 27 Oeste 36 Oeste 4 963.6 -0.7 98
2018-01-06 23:00:00 2.4 22 Oeste 29 Oeste 6.4 963.7 -0.5 99
2018-01-06 22:00:00 2.4 20 Oeste 38 Oeste 4.4 963.8 -0.4 99
2018-01-06 21:00:00 1.8 22 Oeste 41 Oeste 3.6 964.3 0 98
2018-01-06 20:00:00 1.7 34 Oeste 46 Oeste 1 964.2 -0.6 98
2018-01-06 19:00:00 1.9 32 Oeste 43 Oeste 1.8 964.2 -0.8 98
2018-01-06 18:00:00 2.1 32 Oeste 44 Oeste 2.6 964.3 -0.9 97
2018-01-06 17:00:00 2.5 23 Oeste 33 Oeste 2.2 964.8 -0.8 98
2018-01-06 16:00:00 3.4 18 Oeste 31 Oeste 0.8 965 -1.5 97
2018-01-06 15:00:00 4 22 Oeste 29 Oeste 2.2 965.2 -1.9 96
2018-01-06 14:00:00 4.5 16 Noroeste 23 Noroeste 1.8 965.6 -1.6 96
2018-01-06 13:00:00 4.4 14 Oeste 22 Oeste 0.2 966.5 -0.1 96
2018-01-06 12:00:00 4.6 14 Noroeste 27 Noroeste 0.4 967.1 0.6 96
2018-01-06 11:00:00 4.5 17 Oeste 28 Noroeste 0.4 967.2 0.8 95
2018-01-06 10:00:00 4.4 22 Oeste 32 Oeste 0 966.6 0.3 94
2018-01-06 09:00:00 4.2 19 Oeste 34 Oeste 0 966.5 -0.1 95
2018-01-06 08:00:00 4.1 23 Oeste 33 Oeste 0 966.4 -0.2 94
2018-01-06 07:00:00 4.1 24 Noroeste 40 Oeste 0.6 966.3 -0.9 95
2018-01-06 06:00:00 4.3 23 Noroeste 36 Oeste 1.8 966.6 -1 96
2018-01-06 05:00:00 4.8 26 Noroeste 41 Oeste 1 966.6 -1.2 95
2018-01-06 04:00:00 5.4 26 Noroeste 42 Oeste 1.6 967.2 -1.3 93
2018-01-06 03:00:00 6 27 Oeste 36 Oeste 2.2 967.6 -1.5 93
2018-01-06 02:00:00 8 13 Oeste 20 Oeste 1.6 967.8 -1.7 95
2018-01-06 01:00:00 8.9 2 Sudeste 13 Oeste 0.8 968.5 -1.5 94
2018-01-06 00:00:00 9.2 8 Oeste 9 Oeste 0 969.1 -1 94
2018-01-05 23:00:00 9.8 4 Este 6 Este 0.2 969.5 -1.2 89
2018-01-05 22:00:00 10.6 3 Nordeste 15 Oeste 0 970 -0.6 83
2018-01-05 21:00:00 10.7 10 Noroeste 21 Noroeste 0 970.1 -0.5 82
2018-01-05 20:00:00 11.8 10 Oeste 22 Sudoeste 0 970.7 -0.3 72
2018-01-05 19:00:00 12.6 15 Sudoeste 29 Sudoeste 0 970.6 -0.6 68
2018-01-05 18:00:00 13.1 14 Sur 37 Sur 0 970.6 -1.3 63
2018-01-05 17:00:00 14.4 26 Sudoeste 36 Sudoeste 0 971 -2 57
2018-01-05 16:00:00 15.1 21 Sur 28 Sur 0 971.2 -2.9 54
2018-01-05 15:00:00 14.9 11 Sudeste 26 Sur 0 971.9 -3.4 52
2018-01-05 14:00:00 15.7 10 Sur 29 Sur 0 973 -3 50
2018-01-05 13:00:00 15.8 17 Sur 37 Sudoeste 0 974.1 -2.4 48
2018-01-05 12:00:00 15.4 29 Sudoeste 45 Sudoeste 0 975.3 -1.2 51
2018-01-05 11:00:00 13.9 29 Sur 40 Sur 0 976 -0.8 55
2018-01-05 10:00:00 12.9 22 Sudoeste 32 Sur 0 976.5 -0.1 60
2018-01-05 09:00:00 11.2 10 Sudoeste 22 Sur 0 976.5 -0.3 66
2018-01-05 08:00:00 11.2 15 Sur 29 Sur 0 976.8 -0.4 68
2018-01-05 07:00:00 9.5 14 Sudoeste 26 Sur 0 976.6 -1.7 79
2018-01-05 06:00:00 7.7 15 Sudoeste 20 Sudoeste 0 976.8 -2.5 87
2018-01-05 05:00:00 5.8 4 Sur 11 Este 0 977.2 -3 94
2018-01-05 04:00:00 6.4 3 Nordeste 12 Este 0 978.3 -3 90
2018-01-05 03:00:00 5.6 4 Sudeste 9 Este 0 979.3 -3.3 91
2018-01-05 02:00:00 5.8 2 Sudeste 6 Norte 0 980.2 -2.8 91
2018-01-05 01:00:00 6.2 5 Norte 7 Norte 0 981.3 -2.1 91
2018-01-05 00:00:00 7.2 4 Norte 9 Este 0 982.6 -1.4 88
2018-01-04 23:00:00 8.9 6 Sudeste 13 Este 0 983 -1.7 79
2018-01-04 22:00:00 10.7 2 Sur 10 Sur 0 983.4 -0.6 69
2018-01-04 21:00:00 9.6 11 Sur 17 Sudeste 0 984 0.1 78
2018-01-04 20:00:00 11.4 5 Nordeste 8 Sudeste 0 984.7 0.8 76
2018-01-04 19:00:00 13.8 8 Sur 12 Sur 0 984 -0.2 65
2018-01-04 18:00:00 14.7 12 Noroeste 27 Noroeste 0 983.9 -0.8 64
2018-01-04 17:00:00 16.9 11 Oeste 23 Oeste 0 983.9 -1.6 58
2018-01-04 16:00:00 18.3 15 Oeste 22 Oeste 0 984.2 -2.6 56
2018-01-04 15:00:00 18.4 15 Oeste 22 Oeste 0 984.7 -3.1 53
2018-01-04 14:00:00 17.8 10 Noroeste 22 Noroeste 0 985.5 -2.9 60
2018-01-04 13:00:00 16.9 6 Oeste 13 Sudoeste 0 986.8 -1.6 64
2018-01-04 12:00:00 15.6 6 Noroeste 13 Oeste 0 987.8 -0.3 68
2018-01-04 11:00:00 12.9 6 Sudoeste 10 Sur 0 988.4 0.5 82
2018-01-04 10:00:00 9.4 5 Norte 10 Noroeste 0 988.4 0.4 92
2018-01-04 09:00:00 7.2 6 Noroeste 13 Este 0 988.1 -0.1 96
2018-01-04 08:00:00 8.1 7 Este 12 Sudeste 0 987.9 -0.9 92
2018-01-04 07:00:00 10 9 Sudeste 13 Sudeste 0 988 -1 91
2018-01-04 06:00:00 9.6 5 Sudeste 15 Oeste 0 988.2 -1 90
2018-01-04 05:00:00 10.7 8 Sur 22 Oeste 0 988.8 -0.8 87
2018-01-04 04:00:00 13.2 17 Oeste 31 Noroeste 0 989 -1.1 79
2018-01-04 03:00:00 14 22 Noroeste 34 Noroeste 0 989.2 -1.1 77
2018-01-04 02:00:00 15.1 27 Noroeste 41 Oeste 0 989.6 -0.7 74
2018-01-04 01:00:00 12.9 8 Oeste 18 Oeste 0 990.1 -0.1 84
2018-01-04 00:00:00 13 15 Noroeste 19 Noroeste 0 990.3 0.1 83
2018-01-03 23:00:00 13.5 6 Noroeste 14 Oeste 0 990.3 -0.1 84
2018-01-03 22:00:00 12.6 3 Sudoeste 8 Noroeste 0 990.2 0 87
2018-01-03 21:00:00 13.2 6 Noroeste 8 Noroeste 0 990.2 -0.1 84
2018-01-03 20:00:00 13.9 8 Sudoeste 20 Oeste 0 990.4 0.2 82
2018-01-03 19:00:00 14.7 10 Oeste 22 Noroeste 0 990.2 -0.4 79
2018-01-03 18:00:00 15 14 Oeste 32 Noroeste 0 990.3 -0.2 77
2018-01-03 17:00:00 17 23 Noroeste 55 Noroeste 0 990.2 -1.2 69
2018-01-03 16:00:00 17.5 36 Noroeste 48 Noroeste 0 990.6 -1.8 66
2018-01-03 15:00:00 18.5 25 Noroeste 39 Noroeste 0 990.5 -2.5 64
2018-01-03 14:00:00 17.1 27 Oeste 36 Noroeste 0 991.4 -1.7 69
2018-01-03 13:00:00 16 12 Oeste 20 Oeste 0 992.4 -0.7 75
2018-01-03 12:00:00 12.5 5 Sur 7 Sur 0 993 0.7 83
2018-01-03 11:00:00 9.9 3 Sur 5 Sur 0 993.1 1.1 93
2018-01-03 10:00:00 7 0 Calma 4 Sudoeste 0 993.1 1.5 99
2018-01-03 09:00:00 5.6 4 Norte 6 Nordeste 0 992.3 0.4 99
2018-01-03 08:00:00 5.6 3 Oeste 7 Sudoeste 0 992 0.2 99
2018-01-03 07:00:00 5.7 6 Norte 9 Norte 0 991.6 -0.2 99
2018-01-03 06:00:00 5.4 4 Norte 10 Sudeste 0 991.9 -0.3 98
2018-01-03 05:00:00 5.9 2 Noroeste 7 Norte 0 991.8 -0.1 98
2018-01-03 04:00:00 6.1 3 Norte 7 Noroeste 0 991.8 -0.2 97
2018-01-03 03:00:00 6.4 3 Oeste 7 Noroeste 0 992.2 0.2 94
2018-01-03 02:00:00 7.2 4 Sudeste 10 Sudeste 0 991.9 -0.1 93
2018-01-03 01:00:00 8.3 3 Norte 8 Nordeste 0 992 -0.1 90
2018-01-03 00:00:00 9.9 6 Sur 15 Sudoeste 0 992 0.2 89
2018-01-02 23:00:00 10.3 8 Sudoeste 14 Oeste 0 992 0.1 89
2018-01-02 22:00:00 11.8 10 Oeste 20 Noroeste 0 992.1 0.7 81
2018-01-02 21:00:00 12.9 17 Noroeste 36 Noroeste 0 991.8 0.7 79
2018-01-02 20:00:00 13.4 17 Noroeste 38 Oeste 0 991.9 1.1 77
2018-01-02 19:00:00 13.8 27 Oeste 35 Noroeste 0 991.4 0.5 74
2018-01-02 18:00:00 13.6 19 Oeste 28 Noroeste 0 991.1 -0.2 75
2018-01-02 17:00:00 14.6 9 Oeste 18 Oeste 0 990.8 -0.4 72
2018-01-02 16:00:00 13.6 10 Noroeste 31 Noroeste 0.2 990.9 -0.9 81
2018-01-02 15:00:00 12.5 19 Noroeste 29 Noroeste 0.4 991.3 -0.8 86
2018-01-02 14:00:00 12.8 18 Oeste 37 Noroeste 0 991.2 -0.8 81
2018-01-02 13:00:00 12.8 23 Oeste 33 Oeste 0 991.8 0 77
2018-01-02 12:00:00 11.7 16 Oeste 25 Oeste 0.2 992.1 0.6 81
2018-01-02 11:00:00 10.7 14 Oeste 19 Oeste 0 992 0.7 85
2018-01-02 10:00:00 7.5 5 Noroeste 7 Oeste 0 991.8 0.8 98
2018-01-02 09:00:00 6.6 3 Nordeste 6 Noroeste 0 991.5 0.7 97
2018-01-02 08:00:00 6.8 0 Calma 7 Sur 0 991.3 -0.1 96
2018-01-02 07:00:00 7.3 4 Sur 10 Sur 0 991 -0.6 96
2018-01-02 06:00:00 7.7 8 Norte 11 Norte 0 990.8 -1.1 95
2018-01-02 05:00:00 8.3 6 Norte 9 Norte 0.6 991.4 -0.4 94
2018-01-02 04:00:00 8.5 5 Oeste 6 Oeste 0.6 991.6 -0.4 96
2018-01-02 03:00:00 8.9 3 Norte 6 Sudeste 0 991.9 0 95
2018-01-02 02:00:00 9 2 Noroeste 12 Noroeste 0.2 991.8 0 94
2018-01-02 01:00:00 9.1 8 Noroeste 12 Noroeste 1.4 992 1.2 96
2018-01-02 00:00:00 9.1 9 Nordeste 10 Nordeste 1.2 991.9 1.8 95
2018-01-01 23:00:00 9.7 6 Noroeste 17 Norte 0.2 991.8 1.8 90
2018-01-01 22:00:00 9.9 9 Norte 26 Oeste 0 990.8 2.1 87
2018-01-01 21:00:00 10.4 13 Sudoeste 23 Oeste 0 990.1 2.1 85
2018-01-01 20:00:00 10.7 16 Noroeste 31 Oeste 0.2 990 2.7 84
2018-01-01 19:00:00 12.4 24 Oeste 38 Noroeste 0 988.7 1.1 68
2018-01-01 18:00:00 11.6 4 Norte 12 Norte 0 988 -0.2 63
2018-01-01 17:00:00 12.7 6 Norte 8 Norte 0 987.3 -1.4 57
2018-01-01 16:00:00 13.8 6 Sudoeste 17 Sudoeste 0 987.6 -2.1 48
2018-01-01 15:00:00 13.7 7 Sur 17 Sur 0 988.2 -2.8 49
2018-01-01 14:00:00 12.8 7 Sur 15 Sudeste 0 988.7 -3.2 49
2018-01-01 13:00:00 11.9 9 Este 19 Este 0 989.7 -3.1 61
2018-01-01 12:00:00 8.6 17 Este 31 Este 0 991 -1.6 74
2018-01-01 11:00:00 5.9 20 Este 29 Este 0 991.9 -0.9 82
2018-01-01 10:00:00 2 4 Oeste 14 Este 0 992.8 0 93
2018-01-01 09:00:00 -0.1 7 Sudeste 10 Sudeste 0 992.6 0.5 93
2018-01-01 08:00:00 1.4 0 Calma 8 Sudoeste 0 992.8 0 93
2018-01-01 07:00:00 0.9 4 Oeste 9 Sur 0 992.8 0.4 91
2018-01-01 06:00:00 1.8 6 Sur 9 Sur 0 992.1 0.5 87
2018-01-01 05:00:00 3.3 5 Oeste 14 Oeste 0 992.8 1.5 85
2018-01-01 04:00:00 3.8 13 Noroeste 24 Noroeste 0 992.4 1.7 84
2018-01-01 03:00:00 3.5 13 Noroeste 19 Noroeste 0 991.6 1.7 87
2018-01-01 02:00:00 3.5 10 Oeste 21 Oeste 0 991.3 1.8 92
2018-01-01 01:00:00 4.8 13 Oeste 18 Oeste 0 990.7 2 92
2018-01-01 00:00:00 4.6 13 Noroeste 19 Noroeste 0 989.9 2 94
2017-12-31 23:00:00 5 15 Noroeste 33 Noroeste 0 989.5 3.2 95
2017-12-31 22:00:00 6.6 26 Noroeste 34 Noroeste 0 988.7 6.1 92
2017-12-31 21:00:00 6.9 22 Oeste 35 Noroeste 0 987.9 5.9 94
2017-12-31 20:00:00 7 31 Noroeste 76 Noroeste 1.4 986.3 4.4 95
2017-12-31 19:00:00 13.1 23 Sudoeste 30 Sudoeste 0 982.6 0.3 63
2017-12-31 18:00:00 13.8 19 Sudoeste 32 Sudoeste 0 982 -0.8 56
2017-12-31 17:00:00 14.6 21 Sudoeste 28 Sudoeste 0 981.9 -1.2 51
2017-12-31 16:00:00 15.6 17 Sudoeste 44 Sudoeste 0 982.3 -1.9 51
2017-12-31 15:00:00 15.6 32 Sudoeste 45 Sudoeste 0 982.8 -2.2 47
2017-12-31 14:00:00 14.5 18 Sudeste 36 Sur 0 983.1 -2.1 53
2017-12-31 13:00:00 13.7 24 Sur 50 Sudoeste 0 984.2 -1.5 54
2017-12-31 12:00:00 11 15 Sudeste 37 Este 0 985 -1.1 67
2017-12-31 11:00:00 8.2 26 Este 37 Este 0 985.2 -1.6 83
2017-12-31 10:00:00 7.1 24 Este 33 Este 0 985.7 -0.1 87
2017-12-31 09:00:00 6.8 10 Sur 28 Este 0 986.1 0.1 88
2017-12-31 08:00:00 6.1 12 Sudeste 26 Sudeste 0 986.8 -0.1 90
2017-12-31 07:00:00 5.6 17 Sudeste 34 Este 0 985.8 -2 91
2017-12-31 06:00:00 5.4 25 Este 33 Este 0 986 -2.6 91
2017-12-31 05:00:00 4.2 9 Sudeste 15 Norte 0 986.9 -1.8 98
2017-12-31 04:00:00 2.8 6 Noroeste 13 Noroeste 0 987.8 -1.3 99
2017-12-31 03:00:00 3.1 4 Sudeste 8 Sudeste 0 988.6 -0.7 98
2017-12-31 02:00:00 3.6 3 Noroeste 10 Sur 0 988.7 -0.4 96
2017-12-31 01:00:00 4.3 5 Norte 10 Norte 0 989.1 0 94